FDC1601 KCLL-KEVV
Flight info
| Callsign | FDC1601 |
|---|---|
| Flight time | 1h 23m |
| Altitude | 35000 |
| Route | BAZBL J27 STELL EMG DHART CARIN VISQA J29 PXV |
| Aircraft | B738/M-SDE2E3FGHIRWXY/LB1 |
Departure
| Time | 2026-05-06 13:09 |
|---|---|
| Airport | Easterwood Field (KCLL) |
Arrival
| Time | 2026-05-06 14:33 |
|---|---|
| Airport | Evansville Regional Airport (KEVV) |
| Time | Latitude | Longitude | Altitude | Speed | Heading |
|---|---|---|---|---|---|
| 2026-05-06 12:52 | 30.58405 | -96.36197 | 329 ft | 0 kts | 261° |
| 2026-05-06 13:03 | 30.58405 | -96.36196 | 329 ft | 1 kts | 261° |
| 2026-05-06 13:04 | 30.58407 | -96.36182 | 329 ft | 2 kts | 261° |
| 2026-05-06 13:04 | 30.58412 | -96.36161 | 329 ft | 3 kts | 239° |
| 2026-05-06 13:04 | 30.58426 | -96.36145 | 329 ft | 3 kts | 203° |
| 2026-05-06 13:04 | 30.58446 | -96.36143 | 329 ft | 2 kts | 171° |
| 2026-05-06 13:05 | 30.58447 | -96.36143 | 329 ft | 0 kts | 171° |
| 2026-05-06 13:06 | 30.58439 | -96.36141 | 329 ft | 5 kts | 168° |
| 2026-05-06 13:06 | 30.58371 | -96.36122 | 329 ft | 15 kts | 167° |
| 2026-05-06 13:06 | 30.58258 | -96.36096 | 329 ft | 17 kts | 169° |
| 2026-05-06 13:06 | 30.58142 | -96.36069 | 329 ft | 17 kts | 168° |
| 2026-05-06 13:07 | 30.58029 | -96.36043 | 329 ft | 16 kts | 168° |
| 2026-05-06 13:07 | 30.57919 | -96.36018 | 329 ft | 16 kts | 168° |
| 2026-05-06 13:07 | 30.57812 | -96.35993 | 329 ft | 14 kts | 168° |
| 2026-05-06 13:07 | 30.57778 | -96.35934 | 329 ft | 11 kts | 75° |
| 2026-05-06 13:08 | 30.57833 | -96.35874 | 329 ft | 7 kts | 356° |
| 2026-05-06 13:08 | 30.57836 | -96.35874 | 329 ft | 0 kts | 356° |
| 2026-05-06 13:09 | 30.58032 | -96.35917 | 329 ft | 65 kts | 350° |
| 2026-05-06 13:09 | 30.58710 | -96.36071 | 329 ft | 132 kts | 349° |
| 2026-05-06 13:09 | 30.59733 | -96.36298 | 762 ft | 160 kts | 349° |
| 2026-05-06 13:09 | 30.60842 | -96.36547 | 1519 ft | 166 kts | 350° |
| 2026-05-06 13:10 | 30.62014 | -96.36378 | 2155 ft | 179 kts | 25° |
| 2026-05-06 13:10 | 30.62932 | -96.35357 | 2809 ft | 193 kts | 60° |
| 2026-05-06 13:10 | 30.63302 | -96.33799 | 3475 ft | 209 kts | 84° |
| 2026-05-06 13:10 | 30.63326 | -96.32650 | 3896 ft | 220 kts | 88° |
| 2026-05-06 13:11 | 30.63382 | -96.30185 | 4755 ft | 241 kts | 88° |
| 2026-05-06 13:11 | 30.63420 | -96.28162 | 5406 ft | 258 kts | 89° |
| 2026-05-06 13:11 | 30.63459 | -96.26021 | 6047 ft | 272 kts | 89° |
| 2026-05-06 13:11 | 30.63484 | -96.24545 | 6466 ft | 278 kts | 89° |
| 2026-05-06 13:12 | 30.63523 | -96.22264 | 7100 ft | 284 kts | 89° |
| 2026-05-06 13:12 | 30.63560 | -96.19954 | 7729 ft | 287 kts | 89° |
| 2026-05-06 13:12 | 30.63598 | -96.17616 | 8358 ft | 290 kts | 89° |
| 2026-05-06 13:12 | 30.63635 | -96.15261 | 8986 ft | 293 kts | 89° |
| 2026-05-06 13:13 | 30.63671 | -96.12914 | 9605 ft | 296 kts | 89° |
| 2026-05-06 13:13 | 30.63708 | -96.10507 | 10234 ft | 300 kts | 89° |
| 2026-05-06 13:13 | 30.63749 | -96.08079 | 10851 ft | 305 kts | 88° |
| 2026-05-06 13:13 | 30.64032 | -96.05558 | 11234 ft | 324 kts | 77° |
| 2026-05-06 13:14 | 30.64719 | -96.02984 | 11568 ft | 344 kts | 69° |
| 2026-05-06 13:14 | 30.65690 | -96.00368 | 11837 ft | 363 kts | 65° |
| 2026-05-06 13:14 | 30.66800 | -95.97671 | 12077 ft | 381 kts | 64° |
| 2026-05-06 13:14 | 30.67969 | -95.94842 | 12418 ft | 394 kts | 64° |
| 2026-05-06 13:15 | 30.69152 | -95.91943 | 12979 ft | 399 kts | 65° |
| 2026-05-06 13:15 | 30.70337 | -95.89004 | 13597 ft | 402 kts | 64° |
| 2026-05-06 13:15 | 30.71542 | -95.86013 | 13839 ft | 417 kts | 64° |
| 2026-05-06 13:15 | 30.72820 | -95.82882 | 13924 ft | 436 kts | 65° |
| 2026-05-06 13:16 | 30.74114 | -95.79633 | 14260 ft | 446 kts | 65° |
| 2026-05-06 13:16 | 30.75397 | -95.76383 | 14817 ft | 449 kts | 65° |
| 2026-05-06 13:16 | 30.76708 | -95.73052 | 15319 ft | 454 kts | 65° |
| 2026-05-06 13:16 | 30.78031 | -95.69687 | 15789 ft | 459 kts | 65° |
| 2026-05-06 13:17 | 30.79365 | -95.66286 | 16285 ft | 463 kts | 65° |
| 2026-05-06 13:17 | 30.80709 | -95.62855 | 16762 ft | 467 kts | 65° |
| 2026-05-06 13:17 | 30.82065 | -95.59402 | 17222 ft | 471 kts | 64° |
| 2026-05-06 13:17 | 30.83604 | -95.56020 | 17670 ft | 474 kts | 58° |
| 2026-05-06 13:18 | 30.85411 | -95.52850 | 18100 ft | 477 kts | 52° |
| 2026-05-06 13:18 | 30.87398 | -95.50003 | 18510 ft | 478 kts | 46° |
| 2026-05-06 13:18 | 30.89791 | -95.47021 | 18953 ft | 480 kts | 43° |
| 2026-05-06 13:18 | 30.92142 | -95.44230 | 19359 ft | 483 kts | 42° |
| 2026-05-06 13:19 | 30.94508 | -95.41409 | 19712 ft | 488 kts | 43° |
| 2026-05-06 13:19 | 30.96882 | -95.38558 | 20103 ft | 491 kts | 43° |
| 2026-05-06 13:19 | 30.99260 | -95.35684 | 20479 ft | 494 kts | 43° |
| 2026-05-06 13:19 | 31.01648 | -95.32783 | 20845 ft | 497 kts | 43° |
| 2026-05-06 13:20 | 31.04019 | -95.29894 | 21197 ft | 500 kts | 43° |
| 2026-05-06 13:20 | 31.06435 | -95.26941 | 21544 ft | 503 kts | 43° |
| 2026-05-06 13:20 | 31.08864 | -95.23976 | 21886 ft | 505 kts | 43° |
| 2026-05-06 13:20 | 31.11305 | -95.21002 | 22222 ft | 508 kts | 43° |
| 2026-05-06 13:21 | 31.13719 | -95.18054 | 22678 ft | 507 kts | 43° |
| 2026-05-06 13:21 | 31.16168 | -95.15055 | 22945 ft | 511 kts | 43° |
| 2026-05-06 13:21 | 31.18627 | -95.12038 | 23241 ft | 514 kts | 43° |
| 2026-05-06 13:21 | 31.21094 | -95.09006 | 23540 ft | 517 kts | 43° |
| 2026-05-06 13:22 | 31.23577 | -95.05950 | 23829 ft | 519 kts | 43° |
| 2026-05-06 13:22 | 31.26071 | -95.02878 | 24110 ft | 522 kts | 43° |
| 2026-05-06 13:22 | 31.28574 | -94.99790 | 24386 ft | 524 kts | 43° |
| 2026-05-06 13:22 | 31.31065 | -94.96714 | 24494 ft | 530 kts | 43° |
| 2026-05-06 13:23 | 31.33611 | -94.93567 | 24759 ft | 532 kts | 43° |
| 2026-05-06 13:23 | 31.36168 | -94.90403 | 25023 ft | 535 kts | 43° |
| 2026-05-06 13:23 | 31.38729 | -94.87232 | 25257 ft | 537 kts | 43° |
| 2026-05-06 13:23 | 31.41305 | -94.84038 | 25491 ft | 540 kts | 43° |
| 2026-05-06 13:24 | 31.43859 | -94.80871 | 25715 ft | 542 kts | 43° |
| 2026-05-06 13:24 | 31.46449 | -94.77655 | 25940 ft | 544 kts | 43° |
| 2026-05-06 13:24 | 31.49051 | -94.74420 | 26159 ft | 546 kts | 43° |
| 2026-05-06 13:24 | 31.51661 | -94.71173 | 26413 ft | 547 kts | 43° |
| 2026-05-06 13:25 | 31.54285 | -94.67907 | 26614 ft | 549 kts | 43° |
| 2026-05-06 13:25 | 31.56913 | -94.64632 | 26806 ft | 551 kts | 43° |
| 2026-05-06 13:25 | 31.59545 | -94.61350 | 26997 ft | 553 kts | 43° |
| 2026-05-06 13:25 | 31.62187 | -94.58052 | 27198 ft | 555 kts | 43° |
| 2026-05-06 13:26 | 31.64804 | -94.54782 | 27468 ft | 555 kts | 43° |
| 2026-05-06 13:26 | 31.67446 | -94.51478 | 27738 ft | 555 kts | 43° |
| 2026-05-06 13:26 | 31.70084 | -94.48176 | 28000 ft | 555 kts | 43° |
| 2026-05-06 13:26 | 31.72735 | -94.44855 | 28270 ft | 555 kts | 43° |
| 2026-05-06 13:27 | 31.75379 | -94.41540 | 28533 ft | 556 kts | 43° |
| 2026-05-06 13:27 | 31.78025 | -94.38218 | 28747 ft | 557 kts | 43° |
| 2026-05-06 13:27 | 31.80674 | -94.34890 | 29006 ft | 558 kts | 43° |
| 2026-05-06 13:27 | 31.83331 | -94.31550 | 29319 ft | 557 kts | 43° |
| 2026-05-06 13:28 | 31.85941 | -94.28266 | 29620 ft | 557 kts | 43° |
| 2026-05-06 13:28 | 31.88584 | -94.24938 | 29907 ft | 557 kts | 43° |
| 2026-05-06 13:28 | 31.91232 | -94.21599 | 30200 ft | 557 kts | 42° |
| 2026-05-06 13:28 | 31.93879 | -94.18258 | 30467 ft | 558 kts | 42° |
| 2026-05-06 13:29 | 31.96523 | -94.14920 | 30773 ft | 557 kts | 42° |
| 2026-05-06 13:29 | 31.99169 | -94.11574 | 31070 ft | 557 kts | 42° |
| 2026-05-06 13:29 | 32.01816 | -94.08226 | 31386 ft | 557 kts | 42° |
| 2026-05-06 13:29 | 32.04428 | -94.04918 | 31690 ft | 557 kts | 42° |
| 2026-05-06 13:30 | 32.07072 | -94.01566 | 31962 ft | 558 kts | 42° |
| 2026-05-06 13:30 | 32.09712 | -93.98217 | 32284 ft | 557 kts | 42° |
| 2026-05-06 13:30 | 32.12360 | -93.94855 | 32594 ft | 557 kts | 42° |
| 2026-05-06 13:30 | 32.14998 | -93.91502 | 32895 ft | 557 kts | 42° |
| 2026-05-06 13:31 | 32.17613 | -93.88175 | 33194 ft | 557 kts | 42° |
| 2026-05-06 13:31 | 32.20251 | -93.84834 | 33491 ft | 556 kts | 41° |
| 2026-05-06 13:31 | 32.22883 | -93.81488 | 33788 ft | 556 kts | 41° |
| 2026-05-06 13:31 | 32.25520 | -93.78124 | 34083 ft | 556 kts | 41° |
| 2026-05-06 13:32 | 32.28147 | -93.74767 | 34334 ft | 557 kts | 41° |
| 2026-05-06 13:32 | 32.33412 | -93.68021 | 34731 ft | 560 kts | 41° |
| 2026-05-06 13:32 | 32.36062 | -93.64623 | 34871 ft | 562 kts | 41° |
| 2026-05-06 13:33 | 32.38712 | -93.61225 | 34887 ft | 562 kts | 41° |
| 2026-05-06 13:33 | 32.44129 | -93.54570 | 34888 ft | 556 kts | 38° |
| 2026-05-06 13:34 | 32.48994 | -93.48997 | 34890 ft | 556 kts | 37° |
| 2026-05-06 13:34 | 32.54545 | -93.42586 | 34891 ft | 557 kts | 38° |
| 2026-05-06 13:35 | 32.60040 | -93.36193 | 34891 ft | 557 kts | 38° |
| 2026-05-06 13:35 | 32.65575 | -93.29733 | 34891 ft | 557 kts | 38° |
| 2026-05-06 13:36 | 32.71099 | -93.23302 | 34898 ft | 556 kts | 38° |
| 2026-05-06 13:36 | 32.76607 | -93.16861 | 34908 ft | 555 kts | 38° |
| 2026-05-06 13:37 | 32.82068 | -93.10452 | 34917 ft | 555 kts | 38° |
| 2026-05-06 13:37 | 32.87573 | -93.03977 | 34920 ft | 555 kts | 38° |
| 2026-05-06 13:38 | 32.93063 | -92.97507 | 34928 ft | 555 kts | 38° |
| 2026-05-06 13:38 | 32.98547 | -92.91029 | 34934 ft | 555 kts | 38° |
| 2026-05-06 13:39 | 33.04033 | -92.84538 | 34937 ft | 555 kts | 38° |
| 2026-05-06 13:39 | 33.09485 | -92.78075 | 34938 ft | 555 kts | 38° |
| 2026-05-06 13:40 | 33.14961 | -92.71571 | 34939 ft | 555 kts | 38° |
| 2026-05-06 13:40 | 33.20441 | -92.65071 | 34939 ft | 555 kts | 38° |
| 2026-05-06 13:41 | 33.25919 | -92.58543 | 34943 ft | 555 kts | 38° |
| 2026-05-06 13:41 | 33.31348 | -92.52048 | 34945 ft | 555 kts | 38° |
| 2026-05-06 13:42 | 33.36815 | -92.45493 | 34949 ft | 555 kts | 38° |
| 2026-05-06 13:42 | 33.42159 | -92.38843 | 34954 ft | 559 kts | 43° |
| 2026-05-06 13:43 | 33.47154 | -92.31682 | 34956 ft | 561 kts | 45° |
| 2026-05-06 13:43 | 33.52123 | -92.24450 | 34959 ft | 561 kts | 45° |
| 2026-05-06 13:44 | 33.57132 | -92.17208 | 34966 ft | 563 kts | 44° |
| 2026-05-06 13:44 | 33.62105 | -92.10047 | 34978 ft | 560 kts | 43° |
| 2026-05-06 13:45 | 33.67130 | -92.02868 | 34972 ft | 561 kts | 43° |
| 2026-05-06 13:45 | 33.74621 | -91.92115 | 34983 ft | 562 kts | 43° |
| 2026-05-06 13:46 | 33.79647 | -91.84873 | 35006 ft | 566 kts | 43° |
| 2026-05-06 13:46 | 33.84707 | -91.77569 | 35014 ft | 567 kts | 43° |
| 2026-05-06 13:47 | 33.89752 | -91.70268 | 35023 ft | 567 kts | 43° |
| 2026-05-06 13:47 | 33.94794 | -91.62957 | 35026 ft | 567 kts | 44° |
| 2026-05-06 13:48 | 33.99799 | -91.55683 | 35026 ft | 567 kts | 44° |
| 2026-05-06 13:48 | 34.04842 | -91.48341 | 35026 ft | 567 kts | 44° |
| 2026-05-06 13:49 | 34.09873 | -91.40999 | 35027 ft | 567 kts | 44° |
| 2026-05-06 13:49 | 34.14873 | -91.33688 | 35027 ft | 567 kts | 44° |
| 2026-05-06 13:50 | 34.19898 | -91.26326 | 35027 ft | 567 kts | 44° |
| 2026-05-06 13:50 | 34.24914 | -91.18961 | 35027 ft | 565 kts | 43° |
| 2026-05-06 13:51 | 34.29874 | -91.11694 | 35028 ft | 565 kts | 43° |
| 2026-05-06 13:51 | 34.34880 | -91.04309 | 35031 ft | 567 kts | 43° |
| 2026-05-06 13:52 | 34.39870 | -90.96922 | 35028 ft | 566 kts | 43° |
| 2026-05-06 13:52 | 34.44867 | -90.89515 | 35021 ft | 567 kts | 43° |
| 2026-05-06 13:53 | 34.49687 | -90.81998 | 35018 ft | 569 kts | 46° |
| 2026-05-06 13:53 | 34.54458 | -90.74311 | 35018 ft | 569 kts | 46° |
| 2026-05-06 13:54 | 34.59218 | -90.66653 | 35016 ft | 566 kts | 46° |
| 2026-05-06 13:54 | 34.63969 | -90.59009 | 35016 ft | 566 kts | 46° |
| 2026-05-06 13:55 | 34.68699 | -90.51427 | 35014 ft | 566 kts | 46° |
| 2026-05-06 13:55 | 34.73460 | -90.43791 | 35009 ft | 566 kts | 46° |
| 2026-05-06 13:56 | 34.78217 | -90.36128 | 35005 ft | 568 kts | 46° |
| 2026-05-06 13:56 | 34.82981 | -90.28442 | 35000 ft | 568 kts | 46° |
| 2026-05-06 13:57 | 34.87721 | -90.20793 | 34999 ft | 567 kts | 46° |
| 2026-05-06 13:57 | 34.92443 | -90.13118 | 34997 ft | 565 kts | 46° |
| 2026-05-06 13:58 | 34.97166 | -90.05416 | 34995 ft | 566 kts | 46° |
| 2026-05-06 13:58 | 35.02300 | -89.98312 | 34992 ft | 552 kts | 34° |
| 2026-05-06 13:59 | 35.08310 | -89.92780 | 34984 ft | 533 kts | 21° |
| 2026-05-06 13:59 | 35.14672 | -89.88340 | 34979 ft | 530 kts | 19° |
| 2026-05-06 14:00 | 35.21081 | -89.83817 | 34988 ft | 531 kts | 19° |
| 2026-05-06 14:00 | 35.26383 | -89.79993 | 34989 ft | 531 kts | 20° |
| 2026-05-06 14:01 | 35.32758 | -89.75348 | 34988 ft | 534 kts | 19° |
| 2026-05-06 14:01 | 35.39137 | -89.70689 | 34990 ft | 536 kts | 20° |
| 2026-05-06 14:02 | 35.45513 | -89.66000 | 34989 ft | 532 kts | 20° |
| 2026-05-06 14:02 | 35.51829 | -89.61337 | 34995 ft | 531 kts | 20° |
| 2026-05-06 14:03 | 35.58153 | -89.56655 | 35003 ft | 530 kts | 20° |
| 2026-05-06 14:03 | 35.64485 | -89.51955 | 35005 ft | 530 kts | 20° |
| 2026-05-06 14:04 | 35.70768 | -89.47282 | 35011 ft | 529 kts | 20° |
| 2026-05-06 14:04 | 35.77057 | -89.42596 | 35014 ft | 528 kts | 20° |
| 2026-05-06 14:05 | 35.83355 | -89.37893 | 35011 ft | 527 kts | 20° |
| 2026-05-06 14:05 | 35.89622 | -89.33205 | 35006 ft | 527 kts | 20° |
| 2026-05-06 14:06 | 35.95864 | -89.28527 | 35006 ft | 527 kts | 20° |
| 2026-05-06 14:06 | 36.02166 | -89.23797 | 34619 ft | 530 kts | 20° |
| 2026-05-06 14:07 | 36.05322 | -89.21435 | 34118 ft | 529 kts | 20° |
| 2026-05-06 14:07 | 36.08469 | -89.19070 | 33617 ft | 528 kts | 20° |
| 2026-05-06 14:07 | 36.11569 | -89.16735 | 33122 ft | 528 kts | 20° |
| 2026-05-06 14:07 | 36.14702 | -89.14369 | 32623 ft | 529 kts | 20° |
| 2026-05-06 14:08 | 36.17844 | -89.11993 | 32122 ft | 530 kts | 20° |
| 2026-05-06 14:08 | 36.20994 | -89.09608 | 31621 ft | 530 kts | 20° |
| 2026-05-06 14:08 | 36.24157 | -89.07212 | 31119 ft | 531 kts | 20° |
| 2026-05-06 14:08 | 36.27316 | -89.04821 | 30618 ft | 532 kts | 20° |
| 2026-05-06 14:09 | 36.30481 | -89.02431 | 30118 ft | 532 kts | 21° |
| 2026-05-06 14:09 | 36.33628 | -89.00055 | 29616 ft | 537 kts | 22° |
| 2026-05-06 14:09 | 36.36845 | -88.97621 | 29090 ft | 543 kts | 23° |
| 2026-05-06 14:09 | 36.40060 | -88.95166 | 28564 ft | 542 kts | 24° |
| 2026-05-06 14:10 | 36.43270 | -88.92715 | 28036 ft | 536 kts | 24° |
| 2026-05-06 14:10 | 36.46433 | -88.90300 | 27510 ft | 532 kts | 24° |
| 2026-05-06 14:10 | 36.49543 | -88.87923 | 26990 ft | 528 kts | 24° |
| 2026-05-06 14:10 | 36.52663 | -88.85537 | 26463 ft | 524 kts | 24° |
| 2026-05-06 14:11 | 36.55769 | -88.83160 | 25935 ft | 520 kts | 24° |
| 2026-05-06 14:11 | 36.58839 | -88.80811 | 25409 ft | 517 kts | 24° |
| 2026-05-06 14:11 | 36.61907 | -88.78477 | 24882 ft | 513 kts | 24° |
| 2026-05-06 14:11 | 36.64901 | -88.76194 | 24362 ft | 509 kts | 24° |
| 2026-05-06 14:12 | 36.67914 | -88.73893 | 23834 ft | 504 kts | 24° |
| 2026-05-06 14:12 | 36.70879 | -88.71624 | 23309 ft | 497 kts | 24° |
| 2026-05-06 14:12 | 36.73834 | -88.69358 | 22779 ft | 493 kts | 24° |
| 2026-05-06 14:12 | 36.76714 | -88.67148 | 22259 ft | 491 kts | 24° |
| 2026-05-06 14:13 | 36.79619 | -88.64914 | 21739 ft | 489 kts | 24° |
| 2026-05-06 14:13 | 36.82508 | -88.62693 | 21236 ft | 485 kts | 24° |
| 2026-05-06 14:13 | 36.85374 | -88.60486 | 20735 ft | 481 kts | 24° |
| 2026-05-06 14:13 | 36.88218 | -88.58294 | 20234 ft | 479 kts | 24° |
| 2026-05-06 14:14 | 36.91053 | -88.56108 | 19731 ft | 476 kts | 24° |
| 2026-05-06 14:14 | 36.93853 | -88.53945 | 19231 ft | 471 kts | 24° |
| 2026-05-06 14:14 | 36.96631 | -88.51798 | 18729 ft | 467 kts | 24° |
| 2026-05-06 14:14 | 36.99353 | -88.49692 | 18234 ft | 463 kts | 24° |
| 2026-05-06 14:15 | 37.02077 | -88.47583 | 17758 ft | 458 kts | 24° |
| 2026-05-06 14:15 | 37.04788 | -88.45493 | 17280 ft | 454 kts | 24° |
| 2026-05-06 14:15 | 37.07472 | -88.43418 | 16802 ft | 450 kts | 24° |
| 2026-05-06 14:15 | 37.10091 | -88.41388 | 16350 ft | 445 kts | 24° |
| 2026-05-06 14:16 | 37.12712 | -88.39351 | 15900 ft | 443 kts | 25° |
| 2026-05-06 14:16 | 37.15318 | -88.37323 | 15449 ft | 438 kts | 25° |
| 2026-05-06 14:16 | 37.17910 | -88.35303 | 14995 ft | 434 kts | 25° |
| 2026-05-06 14:16 | 37.20463 | -88.33310 | 14544 ft | 430 kts | 25° |
| 2026-05-06 14:17 | 37.22992 | -88.31334 | 14093 ft | 426 kts | 25° |
| 2026-05-06 14:17 | 37.25493 | -88.29381 | 13642 ft | 421 kts | 25° |
| 2026-05-06 14:17 | 37.27968 | -88.27444 | 13291 ft | 414 kts | 24° |
| 2026-05-06 14:17 | 37.30384 | -88.25561 | 13038 ft | 403 kts | 23° |
| 2026-05-06 14:18 | 37.32726 | -88.23769 | 12790 ft | 394 kts | 24° |
| 2026-05-06 14:18 | 37.35029 | -88.21961 | 12538 ft | 385 kts | 24° |
| 2026-05-06 14:18 | 37.37283 | -88.20184 | 12285 ft | 377 kts | 24° |
| 2026-05-06 14:18 | 37.39486 | -88.18448 | 12034 ft | 370 kts | 24° |
| 2026-05-06 14:19 | 37.41618 | -88.16767 | 11786 ft | 363 kts | 24° |
| 2026-05-06 14:19 | 37.43753 | -88.15085 | 11533 ft | 357 kts | 24° |
| 2026-05-06 14:19 | 37.45842 | -88.13438 | 11282 ft | 352 kts | 24° |
| 2026-05-06 14:19 | 37.47904 | -88.11812 | 11030 ft | 347 kts | 24° |
| 2026-05-06 14:20 | 37.49945 | -88.10203 | 10778 ft | 342 kts | 23° |
| 2026-05-06 14:20 | 37.51934 | -88.08633 | 10529 ft | 338 kts | 23° |
| 2026-05-06 14:20 | 37.53915 | -88.07069 | 10278 ft | 334 kts | 23° |
| 2026-05-06 14:20 | 37.55882 | -88.05517 | 10026 ft | 330 kts | 23° |
| 2026-05-06 14:21 | 37.57824 | -88.03983 | 9775 ft | 326 kts | 24° |
| 2026-05-06 14:21 | 37.59734 | -88.02477 | 9525 ft | 322 kts | 23° |
| 2026-05-06 14:21 | 37.61588 | -88.01021 | 9273 ft | 312 kts | 24° |
| 2026-05-06 14:21 | 37.63412 | -87.99594 | 9025 ft | 306 kts | 24° |
| 2026-05-06 14:22 | 37.65208 | -87.98178 | 8805 ft | 300 kts | 24° |
| 2026-05-06 14:22 | 37.66963 | -87.96800 | 8573 ft | 293 kts | 24° |
| 2026-05-06 14:22 | 37.68665 | -87.95462 | 8332 ft | 283 kts | 24° |
| 2026-05-06 14:22 | 37.70290 | -87.94183 | 8082 ft | 274 kts | 24° |
| 2026-05-06 14:23 | 37.71881 | -87.92924 | 7830 ft | 266 kts | 25° |
| 2026-05-06 14:23 | 37.73428 | -87.91698 | 7577 ft | 258 kts | 25° |
| 2026-05-06 14:23 | 37.74933 | -87.90504 | 7324 ft | 251 kts | 25° |
| 2026-05-06 14:23 | 37.76389 | -87.89347 | 7072 ft | 244 kts | 26° |
| 2026-05-06 14:24 | 37.77811 | -87.88219 | 6819 ft | 238 kts | 27° |
| 2026-05-06 14:24 | 37.79196 | -87.87118 | 6566 ft | 232 kts | 27° |
| 2026-05-06 14:24 | 37.80551 | -87.86037 | 6312 ft | 227 kts | 28° |
| 2026-05-06 14:24 | 37.81858 | -87.84996 | 6066 ft | 223 kts | 28° |
| 2026-05-06 14:25 | 37.83170 | -87.83950 | 5810 ft | 221 kts | 28° |
| 2026-05-06 14:25 | 37.84460 | -87.82922 | 5560 ft | 218 kts | 29° |
| 2026-05-06 14:25 | 37.85738 | -87.81904 | 5308 ft | 215 kts | 29° |
| 2026-05-06 14:25 | 37.86996 | -87.80900 | 5073 ft | 213 kts | 30° |
| 2026-05-06 14:26 | 37.88242 | -87.79905 | 4829 ft | 215 kts | 30° |
| 2026-05-06 14:26 | 37.89507 | -87.78896 | 4579 ft | 214 kts | 30° |
| 2026-05-06 14:26 | 37.90743 | -87.77874 | 4321 ft | 212 kts | 37° |
| 2026-05-06 14:26 | 37.91469 | -87.76293 | 4054 ft | 213 kts | 78° |
| 2026-05-06 14:27 | 37.91148 | -87.74506 | 3983 ft | 213 kts | 121° |
| 2026-05-06 14:27 | 37.90060 | -87.73236 | 4041 ft | 216 kts | 143° |
| 2026-05-06 14:27 | 37.88800 | -87.72156 | 4058 ft | 220 kts | 146° |
| 2026-05-06 14:27 | 37.87621 | -87.70931 | 3934 ft | 221 kts | 124° |
| 2026-05-06 14:28 | 37.87238 | -87.69105 | 3674 ft | 215 kts | 83° |
| 2026-05-06 14:28 | 37.87846 | -87.67504 | 3426 ft | 196 kts | 45° |
| 2026-05-06 14:28 | 37.88901 | -87.66514 | 3193 ft | 184 kts | 29° |
| 2026-05-06 14:28 | 37.90016 | -87.65816 | 2944 ft | 178 kts | 22° |
| 2026-05-06 14:29 | 37.91149 | -87.65226 | 2719 ft | 175 kts | 25° |
| 2026-05-06 14:29 | 37.92187 | -87.64393 | 2472 ft | 177 kts | 34° |
| 2026-05-06 14:29 | 37.93166 | -87.63444 | 2222 ft | 177 kts | 36° |
| 2026-05-06 14:29 | 37.94129 | -87.62480 | 2017 ft | 175 kts | 36° |
| 2026-05-06 14:30 | 37.95085 | -87.61522 | 1991 ft | 175 kts | 36° |
| 2026-05-06 14:30 | 37.96040 | -87.60563 | 1998 ft | 176 kts | 36° |
| 2026-05-06 14:30 | 37.96954 | -87.59648 | 1981 ft | 165 kts | 36° |
| 2026-05-06 14:30 | 37.97842 | -87.58770 | 1970 ft | 158 kts | 36° |
| 2026-05-06 14:31 | 37.98689 | -87.57918 | 1836 ft | 152 kts | 37° |
| 2026-05-06 14:31 | 37.99503 | -87.57106 | 1650 ft | 147 kts | 34° |
| 2026-05-06 14:31 | 38.00331 | -87.56358 | 1448 ft | 145 kts | 34° |
| 2026-05-06 14:31 | 38.01121 | -87.55539 | 1201 ft | 147 kts | 36° |
| 2026-05-06 14:32 | 38.01923 | -87.54748 | 983 ft | 143 kts | 33° |
| 2026-05-06 14:32 | 38.02699 | -87.53988 | 717 ft | 139 kts | 35° |
| 2026-05-06 14:32 | 38.03442 | -87.53255 | 504 ft | 132 kts | 35° |
| 2026-05-06 14:32 | 38.04125 | -87.52575 | 426 ft | 109 kts | 35° |
| 2026-05-06 14:33 | 38.04532 | -87.52176 | 426 ft | 38 kts | 38° |
| 2026-05-06 14:33 | 38.04708 | -87.51998 | 426 ft | 30 kts | 38° |
| 2026-05-06 14:33 | 38.04799 | -87.51908 | 426 ft | 14 kts | 37° |
| 2026-05-06 14:33 | 38.04874 | -87.51934 | 426 ft | 13 kts | 298° |
| 2026-05-06 14:34 | 38.04836 | -87.52032 | 426 ft | 15 kts | 218° |
| 2026-05-06 14:34 | 38.04756 | -87.52116 | 426 ft | 15 kts | 218° |
| 2026-05-06 14:34 | 38.04683 | -87.52208 | 426 ft | 15 kts | 231° |
| 2026-05-06 14:34 | 38.04614 | -87.52315 | 426 ft | 16 kts | 231° |
| 2026-05-06 14:35 | 38.04550 | -87.52416 | 426 ft | 13 kts | 231° |
| 2026-05-06 14:35 | 38.04492 | -87.52509 | 426 ft | 13 kts | 231° |
| 2026-05-06 14:35 | 38.04429 | -87.52594 | 426 ft | 13 kts | 222° |
| 2026-05-06 14:35 | 38.04370 | -87.52658 | 426 ft | 9 kts | 229° |
| 2026-05-06 14:36 | 38.04371 | -87.52732 | 426 ft | 8 kts | 306° |
| 2026-05-06 14:36 | 38.04379 | -87.52795 | 426 ft | 7 kts | 236° |
| 2026-05-06 14:36 | 38.04337 | -87.52846 | 426 ft | 9 kts | 240° |
| 2026-05-06 14:36 | 38.04354 | -87.52908 | 426 ft | 7 kts | 335° |
| 2026-05-06 14:37 | 38.04382 | -87.52901 | 426 ft | 5 kts | 33° |
| 2026-05-06 14:37 | 38.04389 | -87.52896 | 426 ft | 0 kts | 34° |
| 2026-05-06 14:37 | 38.04389 | -87.52895 | 426 ft | 0 kts | 34° |